Time;durP1;ratioP1;P1;durP2;ratioP2;P2;SDS_P1;SDS_P2;PMS_P1;PMS_P2;Temp;Humidity;BMP_temperature;BMP_pressure;BME280_temperature;BME280_humidity;BME280_pressure;Samples;Min_cycle;Max_cycle;Signal;HPM_P1;HPM_P2
2020/12/05 00:00:35;;;;;;;6.00;2.13;;;;;;;4.13;100.00;98372.08;1853627;75;932659;-74
2020/12/05 00:03:05;;;;;;;5.27;1.77;;;;;;;4.40;100.00;98372.66;1845680;76;930757;-75
2020/12/05 00:05:35;;;;;;;5.50;2.00;;;;;;;4.33;100.00;98371.41;1853587;75;932652;-76
2020/12/05 00:08:05;;;;;;;4.53;1.70;;;;;;;4.51;100.00;98365.83;1845104;76;930591;-74
2020/12/05 00:10:35;;;;;;;6.30;2.20;;;;;;;4.56;100.00;98371.22;1854422;75;932565;-75
2020/12/05 00:13:05;;;;;;;5.13;1.90;;;;;;;4.54;100.00;98370.70;1845617;76;930593;-75
2020/12/05 00:15:35;;;;;;;4.23;1.97;;;;;;;4.58;100.00;98370.89;1854005;75;932479;-75
2020/12/05 00:18:05;;;;;;;7.23;2.43;;;;;;;4.76;100.00;98374.09;1866282;75;930522;-75
2020/12/05 00:20:35;;;;;;;6.47;2.20;;;;;;;4.64;100.00;98373.80;1854358;76;932537;-75
2020/12/05 00:23:05;;;;;;;6.30;1.93;;;;;;;4.53;100.00;98381.47;1866327;75;930833;-75
2020/12/05 00:25:35;;;;;;;5.40;1.73;;;;;;;4.65;100.00;98371.88;1833603;76;932878;-75
2020/12/05 00:28:04;;;;;;;2.97;1.60;;;;;;;4.65;100.00;98369.95;1866153;76;930478;-75
2020/12/05 00:30:34;;;;;;;8.60;1.90;;;;;;;4.71;100.00;98370.63;1833431;76;932718;-75
2020/12/05 00:33:05;;;;;;;4.27;1.90;;;;;;;4.78;100.00;98376.55;1866521;75;930605;-75
2020/12/05 00:35:35;;;;;;;7.20;2.60;;;;;;;4.69;100.00;98377.02;1833585;75;932626;-75
2020/12/05 00:38:04;;;;;;;3.73;1.70;;;;;;;4.81;100.00;98380.86;1866403;75;930492;-75
2020/12/05 00:40:34;;;;;;;3.13;1.60;;;;;;;4.83;100.00;98380.56;1833709;76;932692;-75
2020/12/05 00:43:04;;;;;;;3.87;1.70;;;;;;;4.64;100.00;98378.48;1866951;75;930552;-75
2020/12/05 00:45:34;;;;;;;2.53;1.63;;;;;;;4.41;100.00;98386.63;1853644;75;932808;-75
2020/12/05 00:48:04;;;;;;;5.17;2.10;;;;;;;4.62;100.00;98378.78;1845788;77;930491;-75
2020/12/05 00:50:33;;;;;;;3.50;1.50;;;;;;;4.46;100.00;98379.66;1854044;76;932583;-75
2020/12/05 00:53:03;;;;;;;6.57;1.77;;;;;;;4.80;100.00;98386.10;1845779;76;930754;-75
2020/12/05 00:55:33;;;;;;;4.27;1.67;;;;;;;4.76;100.00;98389.77;1854040;75;932333;-75
2020/12/05 00:58:03;;;;;;;5.17;2.10;;;;;;;4.89;100.00;98381.52;1845752;77;930636;-75
2020/12/05 01:00:33;;;;;;;5.17;1.70;;;;;;;4.86;100.00;98386.81;1853558;76;932614;-75
2020/12/05 01:03:05;;;;;;;4.83;2.00;;;;;;;4.90;100.00;98389.20;1866421;75;930847;-75
2020/12/05 01:05:35;;;;;;;3.90;1.53;;;;;;;5.05;100.00;98390.23;1854217;76;932452;-75
2020/12/05 01:08:07;;;;;;;5.77;1.67;;;;;;;4.98;100.00;98393.41;1845809;76;930671;-75
2020/12/05 01:10:36;;;;;;;4.93;1.53;;;;;;;5.04;100.00;98388.06;1866384;76;932840;-75
2020/12/05 01:13:07;;;;;;;4.60;1.77;;;;;;;5.08;100.00;98395.69;1845726;76;930652;-75
2020/12/05 01:15:37;;;;;;;6.67;2.23;;;;;;;5.16;100.00;98399.08;1866493;76;932512;-75
2020/12/05 01:18:06;;;;;;;2.30;1.30;;;;;;;5.13;100.00;98401.09;1866384;76;930665;-75
2020/12/05 01:20:36;;;;;;;5.83;1.47;;;;;;;5.17;100.00;98405.66;1833402;76;932623;-75
2020/12/05 01:23:06;;;;;;;4.47;1.70;;;;;;;5.07;100.00;98415.50;1866179;75;930664;-75
2020/12/05 01:25:36;;;;;;;4.90;1.80;;;;;;;5.19;100.00;98413.03;1833665;76;932531;-74
2020/12/05 01:28:06;;;;;;;4.47;1.50;;;;;;;5.15;100.00;98418.08;1866177;75;930416;-75
2020/12/05 01:30:35;;;;;;;4.90;1.53;;;;;;;5.17;100.00;98411.17;1833579;76;932653;-74
2020/12/05 01:33:05;;;;;;;6.17;1.70;;;;;;;5.22;100.00;98419.88;1866277;76;930577;-74
2020/12/05 01:35:35;;;;;;;4.83;1.43;;;;;;;5.17;100.00;98421.36;1854588;76;932608;-75
2020/12/05 01:38:05;;;;;;;4.63;1.40;;;;;;;5.23;100.00;98425.59;1845005;77;930550;-75
2020/12/05 01:40:35;;;;;;;3.33;1.40;;;;;;;5.18;100.00;98419.65;1854140;75;932535;-75
2020/12/05 01:43:04;;;;;;;5.67;1.87;;;;;;;5.19;100.00;98424.03;1845712;77;930548;-75
2020/12/05 01:45:34;;;;;;;5.63;1.57;;;;;;;5.17;100.00;98424.10;1855813;75;932718;-75
2020/12/05 01:48:04;;;;;;;4.73;1.30;;;;;;;5.12;100.00;98422.83;1844087;77;930897;-75
2020/12/05 01:50:34;;;;;;;3.03;1.53;;;;;;;5.14;100.00;98431.02;1854345;76;932451;-74
2020/12/05 01:53:04;;;;;;;3.53;1.30;;;;;;;5.22;100.00;98437.16;1845838;76;930616;-75
2020/12/05 01:55:33;;;;;;;4.90;1.50;;;;;;;5.20;100.00;98432.55;1854007;75;932674;-74
2020/12/05 01:58:03;;;;;;;5.00;1.87;;;;;;;4.95;100.00;98439.42;1866547;75;930692;-75
2020/12/05 02:00:33;;;;;;;3.43;1.53;;;;;;;5.12;100.00;98438.78;1854157;75;932464;-75
2020/12/05 02:03:03;;;;;;;1.83;1.20;;;;;;;5.11;100.00;98437.70;1845810;76;930790;-75
2020/12/05 02:05:41;;;;;;;2.25;1.27;;;;;;;4.88;100.00;98443.12;1853363;76;932732;-75
2020/12/05 02:08:14;;;;;;;3.53;1.23;;;;;;;4.98;100.00;98442.92;1865938;75;930518;-75
2020/12/05 02:10:48;;;;;;;5.97;2.27;;;;;;;5.04;100.00;98442.27;1866153;76;932562;-75
2020/12/05 02:13:22;;;;;;;2.27;1.30;;;;;;;5.04;100.00;98442.27;1854419;75;932691;-75
2020/12/05 02:15:52;;;;;;;2.67;1.50;;;;;;;4.77;100.00;98445.03;1866005;75;932539;-75
2020/12/05 02:18:23;;;;;;;3.17;1.35;;;;;;;5.01;100.00;98451.93;1833184;76;932454;-75
2020/12/05 02:20:55;;;;;;;6.57;1.50;;;;;;;5.12;100.00;98459.42;1866199;75;932512;-75
2020/12/05 02:23:26;;;;;;;4.10;1.30;;;;;;;5.02;100.00;98450.00;1833641;76;932550;-75
2020/12/05 02:25:59;;;;;;;3.47;0.93;;;;;;;5.20;100.00;98454.56;1866506;75;932569;-75
2020/12/05 02:28:30;;;;;;;4.30;1.22;;;;;;;5.31;100.00;98455.95;1854894;75;932418;-75
2020/12/05 02:31:00;;;;;;;3.87;1.17;;;;;;;5.26;100.00;98462.94;1845711;76;930610;-75
2020/12/05 02:33:30;;;;;;;5.63;1.43;;;;;;;5.29;100.00;98470.60;1833617;76;932561;-75
2020/12/05 02:36:00;;;;;;;5.80;1.20;;;;;;;5.40;100.00;98471.99;1866499;75;930798;-75
2020/12/05 02:38:34;;;;;;;4.40;1.00;;;;;;;5.34;100.00;98477.37;1833776;76;932548;-74
2020/12/05 02:41:04;;;;;;;1.67;0.90;;;;;;;5.58;100.00;98476.28;1866256;76;930577;-75
2020/12/05 02:43:35;;;;;;;5.57;1.10;;;;;;;5.65;100.00;98475.31;1854375;75;932547;-75
2020/12/05 02:46:05;;;;;;;2.60;0.90;;;;;;;5.72;100.00;98477.06;1845805;76;930852;-74
2020/12/05 02:48:35;;;;;;;5.23;1.00;;;;;;;5.81;100.00;98480.70;1853607;75;932550;-75
2020/12/05 02:51:05;;;;;;;3.23;1.10;;;;;;;5.81;100.00;98478.77;1845812;76;931082;-74
2020/12/05 02:53:34;;;;;;;5.33;1.33;;;;;;;5.77;100.00;98476.95;1853503;76;932577;-75
2020/12/05 02:56:04;;;;;;;2.13;0.90;;;;;;;5.80;100.00;98481.27;1866357;76;930565;-75
2020/12/05 02:58:34;;;;;;;2.60;0.70;;;;;;;5.63;100.00;98487.19;1833641;76;932473;-75
2020/12/05 03:01:04;;;;;;;3.47;1.30;;;;;;;5.68;100.00;98485.14;1866116;75;930539;-75
2020/12/05 03:03:34;;;;;;;5.03;1.00;;;;;;;5.72;100.00;98481.20;1854081;75;932465;-75
2020/12/05 03:06:04;;;;;;;2.60;1.30;;;;;;;5.71;100.00;98482.31;1845765;76;930815;-75
2020/12/05 03:08:33;;;;;;;5.43;1.70;;;;;;;5.73;100.00;98475.38;1854083;75;932367;-75
2020/12/05 03:11:03;;;;;;;2.37;0.90;;;;;;;5.77;100.00;98492.91;1866285;76;930718;-75
2020/12/05 03:13:33;;;;;;;4.77;1.67;;;;;;;5.74;100.00;98485.81;1833655;76;932538;-75
2020/12/05 03:16:03;;;;;;;4.13;1.20;;;;;;;5.79;100.00;98495.34;1865984;76;930583;-75
2020/12/05 03:18:33;;;;;;;2.23;0.90;;;;;;;5.82;100.00;98498.84;1831770;76;932420;-75
2020/12/05 03:21:02;;;;;;;3.77;1.07;;;;;;;5.85;100.00;98498.23;1866419;75;930507;-75
2020/12/05 03:23:32;;;;;;;3.80;0.80;;;;;;;5.89;100.00;98500.64;1854003;76;932501;-75
2020/12/05 03:26:02;;;;;;;3.37;0.70;;;;;;;6.06;100.00;98504.09;1866578;76;930633;-75
2020/12/05 03:28:32;;;;;;;2.57;1.07;;;;;;;6.02;100.00;98500.34;1833579;76;932529;-75
2020/12/05 03:31:02;;;;;;;2.10;0.60;;;;;;;5.89;100.00;98497.89;1866412;75;930533;-75
2020/12/05 03:33:35;;;;;;;2.97;1.00;;;;;;;5.89;100.00;98495.14;1854064;75;932753;-75
2020/12/05 03:36:03;;;;;;;2.27;0.70;;;;;;;5.89;100.00;98511.67;1866204;76;930668;-75
2020/12/05 03:38:33;;;;;;;3.03;0.83;;;;;;;5.97;100.00;98504.03;1854009;76;932616;-75
2020/12/05 03:41:03;;;;;;;2.53;0.50;;;;;;;6.06;100.00;98502.72;1845500;76;930564;-75
2020/12/05 03:43:33;;;;;;;2.20;0.60;;;;;;;6.02;100.00;98504.47;1854467;75;932590;-75
2020/12/05 03:46:03;;;;;;;2.17;0.50;;;;;;;6.07;100.00;98512.63;1866041;75;930708;-75
2020/12/05 03:48:33;;;;;;;1.77;0.50;;;;;;;5.86;100.00;98504.00;1833562;77;932448;-75
2020/12/05 03:51:03;;;;;;;0.90;0.50;;;;;;;5.67;100.00;98511.59;1866286;75;930555;-75
2020/12/05 03:53:33;;;;;;;2.27;0.53;;;;;;;5.65;100.00;98511.89;1853874;76;932453;-75
2020/12/05 03:56:03;;;;;;;0.60;0.40;;;;;;;5.59;100.00;98520.03;1845862;76;930758;-75
2020/12/05 03:58:33;;;;;;;2.73;0.97;;;;;;;5.76;100.00;98527.08;1854515;75;932429;-75
2020/12/05 04:01:03;;;;;;;2.27;0.63;;;;;;;5.85;100.00;98525.78;1845920;76;930545;-75
2020/12/05 04:03:32;;;;;;;2.60;0.50;;;;;;;5.88;100.00;98532.06;1854262;76;932654;-75
2020/12/05 04:06:02;;;;;;;2.07;0.60;;;;;;;5.82;100.00;98537.40;1845638;76;930572;-74
2020/12/05 04:08:32;;;;;;;2.27;0.60;;;;;;;5.64;100.00;98544.71;1854406;76;932642;-75
2020/12/05 04:11:02;;;;;;;2.13;0.80;;;;;;;5.67;100.00;98546.02;1845800;76;930613;-75
2020/12/05 04:13:32;;;;;;;1.70;0.50;;;;;;;5.73;100.00;98548.92;1854277;76;932514;-75
2020/12/05 04:16:02;;;;;;;3.03;0.57;;;;;;;5.87;100.00;98549.72;1845803;76;930748;-74
2020/12/05 04:18:32;;;;;;;1.40;0.50;;;;;;;5.78;100.00;98552.91;1853772;76;932449;-75
2020/12/05 04:21:02;;;;;;;1.27;0.60;;;;;;;5.78;100.00;98552.36;1845673;77;930671;-74
2020/12/05 04:23:32;;;;;;;2.70;0.70;;;;;;;5.66;100.00;98556.77;1853785;75;932460;-75
2020/12/05 04:26:01;;;;;;;1.40;0.60;;;;;;;5.66;100.00;98560.34;1866577;75;930572;-75
2020/12/05 04:28:31;;;;;;;2.23;0.70;;;;;;;5.58;100.00;98553.37;1833640;76;932628;-75
2020/12/05 04:31:01;;;;;;;0.53;0.40;;;;;;;5.62;100.00;98565.40;1866168;76;930529;-75
2020/12/05 04:33:31;;;;;;;1.60;0.60;;;;;;;5.69;100.00;98565.81;1833628;76;932630;-75
2020/12/05 04:36:01;;;;;;;1.37;0.50;;;;;;;5.55;100.00;98574.65;1866426;75;930483;-74
2020/12/05 04:38:31;;;;;;;3.63;0.80;;;;;;;5.34;100.00;98582.52;1854482;75;932441;-75
2020/12/05 04:41:02;;;;;;;2.03;0.70;;;;;;;5.45;100.00;98582.00;1845859;76;930629;-75
2020/12/05 04:43:34;;;;;;;3.50;0.50;;;;;;;5.62;100.00;98585.49;1854273;76;932696;-75
2020/12/05 04:46:04;;;;;;;2.20;0.60;;;;;;;5.55;100.00;98585.66;1865880;76;930794;-75
2020/12/05 04:48:35;;;;;;;3.10;0.87;;;;;;;5.57;100.00;98588.91;1854167;75;932498;-74
2020/12/05 04:51:07;;;;;;;2.07;1.00;;;;;;;5.62;100.00;98598.44;1866528;75;930568;-75
2020/12/05 04:53:38;;;;;;;1.70;0.60;;;;;;;5.70;100.00;98597.72;1866226;75;932375;-75
2020/12/05 04:56:09;;;;;;;3.80;0.95;;;;;;;5.71;100.00;98604.30;1845557;76;930555;-75
2020/12/05 04:58:41;;;;;;;1.57;1.47;;;;;;;5.71;100.00;98606.23;1866310;76;932523;-75
2020/12/05 05:01:15;;;;;;;3.30;0.73;;;;;;;5.69;100.00;98622.27;1853934;75;932648;-76
2020/12/05 05:03:46;;;;;;;2.20;1.10;;;;;;;5.68;100.00;98620.08;1876251;75;932653;-75
2020/12/05 05:06:21;;;;;;;1.47;0.77;;;;;;;5.60;100.00;98622.17;1833747;76;932446;-75
2020/12/05 05:08:51;;;;;;;2.00;0.63;;;;;;;5.58;100.00;98631.84;1866460;76;932482;-74
2020/12/05 05:11:21;;;;;;;3.67;0.80;;;;;;;5.61;100.00;98629.28;1833636;76;932614;-75
2020/12/05 05:13:53;;;;;;;1.52;0.60;;;;;;;5.71;100.00;98632.40;1866158;76;932478;-75
2020/12/05 05:16:25;;;;;;;1.07;0.70;;;;;;;5.65;100.00;98637.19;1832667;77;932466;-75
2020/12/05 05:18:55;;;;;;;4.13;1.13;;;;;;;5.63;100.00;98636.70;1866438;75;932584;-75
2020/12/05 05:21:38;;;;;;;2.33;1.33;;;;;;;5.58;100.00;98640.92;1832240;76;932526;-75
2020/12/05 05:24:16;;;;;;;5.23;0.87;;;;;;;5.59;100.00;98642.56;1866219;75;930635;-74
2020/12/05 05:26:48;;;;;;;2.00;0.93;;;;;;;5.60;100.00;98642.01;1845775;76;932476;-75
2020/12/05 05:29:26;;;;;;;2.35;1.10;;;;;;;5.50;100.00;98652.09;1852698;75;932480;-74
2020/12/05 05:32:02;;;;;;;3.87;1.57;;;;;;;5.65;100.00;98644.66;1866462;76;932912;-74
2020/12/05 05:34:29;;;;;;;2.80;1.10;;;;;;;5.57;100.00;98656.36;1833502;76;932556;-75
2020/12/05 05:36:59;;;;;;;3.30;0.87;;;;;;;5.53;100.00;98654.79;1866295;75;930654;-75
2020/12/05 05:39:29;;;;;;;2.67;0.70;;;;;;;5.54;100.00;98659.73;1833808;76;932504;-75
2020/12/05 05:41:59;;;;;;;3.50;0.70;;;;;;;5.67;100.00;98670.76;1866526;75;930606;-75
2020/12/05 05:44:30;;;;;;;1.37;0.57;;;;;;;5.53;100.00;98674.06;1833765;77;932454;-75
2020/12/05 05:47:00;;;;;;;3.90;0.83;;;;;;;5.44;100.00;98677.27;1866399;75;930579;-75
2020/12/05 05:49:32;;;;;;;2.42;0.60;;;;;;;5.39;100.00;98683.68;1833747;76;932738;-75
2020/12/05 05:52:02;;;;;;;4.90;1.10;;;;;;;5.62;100.00;98689.31;1866061;75;930551;-75
2020/12/05 05:54:34;;;;;;;3.13;0.80;;;;;;;5.50;100.00;98693.95;1854153;75;932533;-75
2020/12/05 05:57:11;;;;;;;3.70;0.90;;;;;;;5.46;100.00;98691.00;1845694;76;930880;-75
2020/12/05 05:59:43;;;;;;;2.93;0.80;;;;;;;5.67;100.00;98687.84;1866498;75;932629;-75
2020/12/05 06:02:14;;;;;;;2.20;0.63;;;;;;;5.62;100.00;98694.82;1833632;76;932481;-75
2020/12/05 06:04:46;;;;;;;1.87;0.70;;;;;;;5.66;100.00;98695.28;1866524;75;932718;-75
2020/12/05 06:07:19;;;;;;;3.72;0.98;;;;;;;5.65;100.00;98697.77;1834143;76;932506;-75
2020/12/05 06:09:52;;;;;;;2.53;0.73;;;;;;;5.90;100.00;98697.87;1866657;75;932678;-75
2020/12/05 06:12:23;;;;;;;2.83;0.57;;;;;;;6.11;100.00;98701.83;1834069;76;932474;-75
2020/12/05 06:14:55;;;;;;;6.47;1.10;;;;;;;6.01;100.00;98708.92;1865923;75;932489;-75
2020/12/05 06:17:25;;;;;;;2.52;0.80;;;;;;;6.12;100.00;98708.16;1833592;76;932511;-75
2020/12/05 06:19:56;;;;;;;4.43;0.80;;;;;;;6.13;100.00;98717.48;1866422;75;932530;-75
2020/12/05 06:22:30;;;;;;;3.65;0.80;;;;;;;6.22;100.00;98728.04;1834544;76;932510;-75
2020/12/05 06:25:05;;;;;;;2.00;0.90;;;;;;;6.24;100.00;98727.73;1865911;75;930579;-75
2020/12/05 06:27:38;;;;;;;5.80;1.47;;;;;;;6.27;100.00;98723.80;1853866;75;932637;-75
2020/12/05 06:30:09;;;;;;;1.67;0.70;;;;;;;6.03;100.00;98730.11;1844585;77;930595;-75
2020/12/05 06:32:40;;;;;;;2.73;0.80;;;;;;;5.91;100.00;98728.41;1866634;76;932453;-75
2020/12/05 06:35:34;;;;;;;2.97;0.97;;;;;;;6.26;100.00;98741.45;1866559;75;930546;-75
2020/12/05 06:38:05;;;;;;;4.90;1.10;;;;;;;6.22;100.00;98750.09;1866346;76;930528;-75
2020/12/05 06:40:41;;;;;;;3.70;1.00;;;;;;;6.39;100.00;98746.69;1833598;76;932576;-75
2020/12/05 06:43:15;;;;;;;4.27;1.30;;;;;;;6.36;100.00;98748.70;1865708;76;932593;-76
2020/12/05 06:45:45;;;;;;;4.23;1.50;;;;;;;6.19;100.00;98754.03;1854733;76;932485;-75
2020/12/05 06:48:36;;;;;;;5.30;1.20;;;;;;;6.20;100.00;98752.91;1833571;76;933003;-76
2020/12/05 06:51:06;;;;;;;2.90;0.70;;;;;;;6.26;100.00;98762.13;1866427;75;930692;-76
2020/12/05 06:53:36;;;;;;;4.00;1.13;;;;;;;6.07;100.00;98775.78;1832914;77;932499;-75
2020/12/05 06:56:18;;;;;;;2.70;0.97;;;;;;;5.98;100.00;98783.94;1866236;75;930579;-75
2020/12/05 06:58:57;;;;;;;3.13;1.00;;;;;;;5.65;100.00;98794.74;1845778;76;932431;-76
2020/12/05 07:01:31;;;;;;;6.12;1.10;;;;;;;5.75;100.00;98796.73;1854153;75;931468;-76
2020/12/05 07:04:22;;;;;;;5.40;0.87;;;;;;;5.94;100.00;98799.45;1866385;75;930714;-77
2020/12/05 07:06:51;;;;;;;3.03;1.13;;;;;;;5.83;100.00;98809.80;1865903;76;932628;-77
2020/12/05 07:09:22;;;;;;;2.47;1.40;;;;;;;5.73;100.00;98811.94;1833738;76;932625;-75
2020/12/05 07:12:11;;;;;;;5.90;1.10;;;;;;;5.85;100.00;98819.97;1866443;75;932410;-76
2020/12/05 07:14:43;;;;;;;3.90;1.10;;;;;;;5.88;100.00;98821.32;1865996;75;932621;-75
2020/12/05 07:17:22;;;;;;;3.97;0.77;;;;;;;5.80;100.00;98826.95;1854260;75;932619;-76
2020/12/05 07:19:52;;;;;;;4.03;0.87;;;;;;;5.78;100.00;98826.98;1886479;75;932425;-75
2020/12/05 07:22:23;;;;;;;3.10;0.98;;;;;;;5.93;100.00;98834.45;1833611;76;932654;-76
2020/12/05 07:24:53;;;;;;;3.23;1.33;;;;;;;5.94;100.00;98836.09;1866409;76;932366;-76
2020/12/05 07:27:22;;;;;;;5.27;1.73;;;;;;;6.03;100.00;98845.85;1853913;76;932404;-76
2020/12/05 07:29:55;;;;;;;4.27;1.10;;;;;;;5.91;100.00;98842.19;1845446;76;932545;-75
2020/12/05 07:32:31;;;;;;;5.42;1.70;;;;;;;5.94;100.00;98849.05;1853082;75;932719;-76
2020/12/05 07:35:03;;;;;;;5.87;1.10;;;;;;;6.11;100.00;98860.30;1866241;75;930504;-78
2020/12/05 07:37:34;;;;;;;4.53;1.23;;;;;;;6.07;100.00;98859.83;1854020;76;932726;-77
2020/12/05 07:40:06;;;;;;;3.13;1.60;;;;;;;6.03;100.00;98876.16;1866329;76;930513;-78
2020/12/05 07:42:37;;;;;;;3.43;1.13;;;;;;;6.14;100.00;98874.02;1833540;77;932724;-76
2020/12/05 07:45:08;;;;;;;2.90;0.90;;;;;;;6.19;100.00;98893.22;1866025;75;930576;-78
2020/12/05 07:47:40;;;;;;;5.33;1.30;;;;;;;6.15;100.00;98890.81;1845728;77;932481;-77
2020/12/05 07:50:11;;;;;;;3.63;1.10;;;;;;;6.05;100.00;98897.33;1866125;75;930612;-77
2020/12/05 07:52:42;;;;;;;3.00;0.90;;;;;;;6.18;100.00;98899.30;1865545;76;932545;-76
2020/12/05 07:55:13;;;;;;;2.67;1.20;;;;;;;6.15;100.00;98908.18;1833602;76;932612;-76
2020/12/05 07:57:49;;;;;;;3.67;1.00;;;;;;;6.17;100.00;98913.37;1866377;76;932486;-77
2020/12/05 08:00:21;;;;;;;6.97;1.65;;;;;;;6.13;100.00;98919.23;1854175;75;932506;-78
2020/12/05 08:03:02;;;;;;;5.17;1.00;;;;;;;6.09;100.00;98919.02;1845568;77;932577;-77
2020/12/05 08:05:39;;;;;;;5.33;1.70;;;;;;;5.92;100.00;98916.84;1853833;75;932481;-79
2020/12/05 08:08:11;;;;;;;4.33;1.40;;;;;;;6.09;100.00;98930.05;1814764;78;930594;-76
2020/12/05 08:10:41;;;;;;;6.40;1.20;;;;;;;6.15;100.00;98930.23;1866382;75;932506;-77
2020/12/05 08:13:26;;;;;;;4.27;0.87;;;;;;;6.07;100.00;98935.06;1845298;76;930504;-76
2020/12/05 08:16:03;;;;;;;5.80;1.30;;;;;;;5.88;100.00;98947.49;1867124;76;932508;-75
2020/12/05 08:18:34;;;;;;;5.20;1.23;;;;;;;6.04;100.00;98948.59;1833590;76;932651;-76
2020/12/05 08:21:06;;;;;;;4.73;1.17;;;;;;;5.96;100.00;98959.76;1866218;76;930747;-75
2020/12/05 08:23:38;;;;;;;4.77;1.40;;;;;;;5.94;100.00;98966.15;1845670;76;932571;-76
2020/12/05 08:26:11;;;;;;;4.27;1.40;;;;;;;5.85;100.00;98977.00;1845711;76;930578;-75
2020/12/05 08:28:43;;;;;;;7.70;1.27;;;;;;;5.94;100.00;98984.05;1866797;76;932685;-76
2020/12/05 08:31:14;;;;;;;4.40;1.33;;;;;;;6.01;100.00;98979.52;1854848;75;932384;-76
2020/12/05 08:33:47;;;;;;;4.37;1.40;;;;;;;5.96;100.00;98990.06;1845640;76;932696;-76
2020/12/05 08:36:22;;;;;;;6.22;1.15;;;;;;;6.05;100.00;98999.84;1853844;76;932484;-75
2020/12/05 08:38:53;;;;;;;6.50;1.53;;;;;;;5.97;100.00;99001.91;1866292;75;932458;-75
2020/12/05 08:41:24;;;;;;;5.63;1.57;;;;;;;6.05;100.00;99003.98;1833034;76;932677;-75
2020/12/05 08:43:53;;;;;;;7.47;1.70;;;;;;;6.15;100.00;99007.41;1866399;75;932395;-75
2020/12/05 08:46:24;;;;;;;3.33;1.20;;;;;;;6.14;100.00;99007.14;1833557;76;942305;-75
2020/12/05 08:48:54;;;;;;;6.60;1.53;;;;;;;6.16;100.00;99015.11;1866319;75;932390;-74
2020/12/05 08:51:28;;;;;;;7.73;1.70;;;;;;;6.09;100.00;99014.11;1833522;76;932438;-75
2020/12/05 08:54:07;;;;;;;4.83;1.43;;;;;;;6.22;100.00;99023.54;1866431;75;930793;-75
2020/12/05 08:56:37;;;;;;;4.90;1.57;;;;;;;6.29;100.00;99019.86;1845766;76;932505;-75
2020/12/05 08:59:07;;;;;;;5.60;1.30;;;;;;;6.16;100.00;99023.38;1866315;76;930570;-75
2020/12/05 09:01:41;;;;;;;4.90;1.47;;;;;;;6.07;100.00;99026.01;1845731;77;932428;-75
2020/12/05 09:04:14;;;;;;;6.63;1.70;;;;;;;6.09;100.00;99034.77;1864821;76;932458;-75
2020/12/05 09:06:44;;;;;;;7.03;1.73;;;;;;;6.00;100.00;99028.86;1853298;76;932484;-75
2020/12/05 09:09:14;;;;;;;5.33;1.67;;;;;;;6.09;100.00;99043.59;1854194;76;932498;-76
2020/12/05 09:11:43;;;;;;;3.33;1.10;;;;;;;6.17;100.00;99052.56;1845796;76;932584;-75
2020/12/05 09:14:13;;;;;;;3.33;1.43;;;;;;;6.08;100.00;99055.18;1853295;75;932565;-76
2020/12/05 09:16:43;;;;;;;4.10;1.50;;;;;;;6.16;100.00;99053.11;1866418;75;932465;-75
2020/12/05 09:19:14;;;;;;;6.63;1.77;;;;;;;6.20;100.00;99061.63;1833703;76;932479;-76
2020/12/05 09:21:44;;;;;;;7.83;2.07;;;;;;;6.17;100.00;99063.03;1865655;75;932439;-75
2020/12/05 09:24:14;;;;;;;6.10;1.37;;;;;;;6.24;100.00;99065.42;1833667;76;932495;-76
2020/12/05 09:26:58;;;;;;;6.57;1.30;;;;;;;6.27;100.00;99070.33;1866216;75;932736;-75
2020/12/05 09:29:28;;;;;;;5.03;1.40;;;;;;;6.25;100.00;99069.80;1854207;75;932565;-76
2020/12/05 09:31:58;;;;;;;8.87;1.57;;;;;;;6.25;100.00;99079.44;1845801;76;930490;-75
2020/12/05 09:34:36;;;;;;;7.97;1.60;;;;;;;6.17;100.00;99082.88;1854222;76;932465;-74
2020/12/05 09:37:12;;;;;;;4.47;1.60;;;;;;;6.32;100.00;99079.34;1866328;76;930637;-75
2020/12/05 09:39:42;;;;;;;5.20;2.10;;;;;;;6.39;100.00;99088.04;1845727;76;932449;-75
2020/12/05 09:42:23;;;;;;;5.17;1.67;;;;;;;6.37;100.00;99089.47;1860209;76;932661;-76
2020/12/05 09:44:54;;;;;;;4.10;1.30;;;;;;;6.35;100.00;99092.52;1856982;75;932802;-75
2020/12/05 09:47:24;;;;;;;7.92;1.65;;;;;;;6.42;100.00;99099.60;1832591;76;942694;-78
2020/12/05 09:49:54;;;;;;;5.13;1.80;;;;;;;6.56;100.00;99093.55;1865913;76;932537;-78
2020/12/05 09:52:24;;;;;;;4.97;1.75;;;;;;;6.57;100.00;99104.30;1831756;76;935654;-78
2020/12/05 09:54:54;;;;;;;6.40;1.63;;;;;;;6.69;100.00;99106.02;1866517;75;932836;-76
2020/12/05 09:57:25;;;;;;;7.55;1.52;;;;;;;6.84;100.00;99106.31;1834035;76;932767;-78
2020/12/05 09:59:54;;;;;;;5.10;1.67;;;;;;;6.73;100.00;99106.22;1866307;75;932472;-77
2020/12/05 10:02:24;;;;;;;2.35;1.50;;;;;;;6.78;100.00;99117.17;1834237;76;932490;-75
2020/12/05 10:04:54;;;;;;;9.87;2.03;;;;;;;6.88;100.00;99114.80;1866347;75;932458;-75
2020/12/05 10:07:24;;;;;;;3.72;1.35;;;;;;;6.88;100.00;99115.63;1852789;76;932653;-74
2020/12/05 10:09:54;;;;;;;3.67;1.50;;;;;;;7.00;100.00;99121.47;1866637;75;932588;-74
2020/12/05 10:12:24;;;;;;;4.28;1.65;;;;;;;7.04;100.00;99125.27;1854142;75;934479;-75
2020/12/05 10:14:53;;;;;;;4.57;1.60;;;;;;;7.12;100.00;99125.11;1844471;76;932505;-76
2020/12/05 10:17:23;;;;;;;5.53;1.53;;;;;;;7.02;100.00;99130.25;1854003;76;932470;-72
2020/12/05 10:19:53;;;;;;;3.07;1.30;;;;;;;7.09;100.00;99133.45;1845647;77;932667;-77
2020/12/05 10:22:27;;;;;;;3.93;1.50;;;;;;;7.13;100.00;99138.63;1833419;76;932444;-78
2020/12/05 10:24:57;;;;;;;6.23;1.50;;;;;;;7.23;100.00;99148.08;1865831;76;930684;-83
2020/12/05 10:27:27;;;;;;;6.00;1.62;;;;;;;7.42;100.00;99152.15;1820172;77;932744;-80
2020/12/05 10:29:57;;;;;;;5.73;1.70;;;;;;;7.30;100.00;99158.19;1876859;75;930677;-82
2020/12/05 10:32:27;;;;;;;4.75;1.47;;;;;;;7.34;100.00;99159.77;1833720;76;932435;-83
2020/12/05 10:34:57;;;;;;;5.40;1.40;;;;;;;7.43;100.00;99159.88;1866233;76;930501;-83
2020/12/05 10:37:26;;;;;;;2.93;1.23;;;;;;;7.42;100.00;99153.53;1852888;75;932450;-79
2020/12/05 10:39:57;;;;;;;4.20;1.50;;;;;;;7.36;100.00;99156.71;1845938;76;932511;-82
2020/12/05 10:42:28;;;;;;;4.70;1.93;;;;;;;7.35;100.00;99148.16;1841182;75;932666;-84
2020/12/05 10:44:57;;;;;;;3.47;1.73;;;;;;;7.36;100.00;99156.71;1860218;75;932477;-77
2020/12/05 10:47:27;;;;;;;6.15;1.47;;;;;;;7.43;100.00;99154.35;1854343;75;932534;-79
2020/12/05 10:49:57;;;;;;;7.40;1.50;;;;;;;7.43;100.00;99152.41;1874805;75;930664;-79
2020/12/05 10:52:27;;;;;;;5.37;1.60;;;;;;;7.60;100.00;99151.80;1833677;76;932576;-82
2020/12/05 10:54:57;;;;;;;5.30;2.07;;;;;;;7.51;100.00;99142.59;1866015;76;930739;-81
2020/12/05 10:57:28;;;;;;;5.22;1.40;;;;;;;7.62;100.00;99153.67;1833481;76;932591;-79
2020/12/05 10:59:58;;;;;;;3.50;1.30;;;;;;;7.71;100.00;99155.98;1866518;75;930798;-77
2020/12/05 11:02:28;;;;;;;3.23;1.53;;;;;;;7.77;100.00;99156.97;1854245;75;933895;-79
2020/12/05 11:04:58;;;;;;;5.17;1.30;;;;;;;7.63;100.00;99152.56;1866395;75;930523;-79
2020/12/05 11:07:28;;;;;;;2.92;1.25;;;;;;;7.67;100.00;99148.88;1813489;77;932673;-82
2020/12/05 11:09:59;;;;;;;5.37;2.50;;;;;;;7.90;100.00;99155.87;1873912;75;930535;-84
2020/12/05 11:12:30;;;;;;;5.85;1.40;;;;;;;7.71;100.00;99154.05;1813495;76;932667;-81
2020/12/05 11:15:00;;;;;;;3.37;1.60;;;;;;;7.83;100.00;99150.75;1874541;75;930650;-82
2020/12/05 11:17:30;;;;;;;20.50;4.80;;;;;;;7.91;100.00;99154.75;1875883;75;932645;-76
2020/12/05 11:20:00;;;;;;;8.80;2.30;;;;;;;8.62;100.00;99154.80;1845648;76;932633;-75
2020/12/05 11:22:30;;;;;;;5.10;1.85;;;;;;;8.10;100.00;99150.72;1854220;75;932551;-77
2020/12/05 11:24:59;;;;;;;5.53;1.40;;;;;;;8.00;100.00;99157.05;1845696;76;930684;-76
2020/12/05 11:27:29;;;;;;;6.27;1.73;;;;;;;7.76;100.00;99158.09;1853936;75;932598;-77
2020/12/05 11:29:59;;;;;;;4.67;1.50;;;;;;;7.75;100.00;99161.97;1866525;75;930605;-76
2020/12/05 11:32:29;;;;;;;6.70;1.22;;;;;;;7.71;100.00;99165.66;1833612;76;932531;-75
2020/12/05 11:34:59;;;;;;;5.50;1.67;;;;;;;7.75;100.00;99168.05;1866290;75;930492;-76
2020/12/05 11:37:28;;;;;;;3.93;1.27;;;;;;;7.86;100.00;99168.13;1855266;75;932510;-77
2020/12/05 11:39:59;;;;;;;5.27;1.40;;;;;;;7.83;100.00;99164.56;1845751;77;930581;-77
2020/12/05 11:42:32;;;;;;;2.02;1.30;;;;;;;7.62;100.00;99168.31;1853868;76;932925;-79